Time;durP1;ratioP1;P1;durP2;ratioP2;P2;SDS_P1;SDS_P2;PMS_P1;PMS_P2;Temp;Humidity;BMP_temperature;BMP_pressure;BME280_temperature;BME280_humidity;BME280_pressure;Samples;Min_cycle;Max_cycle;Signal;HPM_P1;HPM_P2
2022/03/04 00:01:04;;;;;;;45.83;15.85;;;-1.80;99.90;;;;;;5021441;28;20091;-70
2022/03/04 00:03:29;;;;;;;44.47;15.15;;;-1.80;99.90;;;;;;5026108;28;20034;-70
2022/03/04 00:05:55;;;;;;;45.42;16.73;;;-2.00;99.90;;;;;;5044242;28;20040;-71
2022/03/04 00:08:21;;;;;;;44.08;15.80;;;-2.10;99.90;;;;;;5045641;28;20025;-69
2022/03/04 00:10:47;;;;;;;48.97;15.85;;;-2.10;99.90;;;;;;5008833;28;20025;-70
2022/03/04 00:13:13;;;;;;;48.33;17.70;;;-2.10;99.90;;;;;;5010024;28;20135;-71
2022/03/04 00:15:38;;;;;;;46.13;17.52;;;-2.10;99.90;;;;;;5009886;28;20152;-71
2022/03/04 00:18:04;;;;;;;45.13;15.35;;;-2.10;99.90;;;;;;5019879;28;20040;-67
2022/03/04 00:20:31;;;;;;;37.95;14.27;;;-2.10;99.90;;;;;;5010750;28;20030;-68
2022/03/04 00:22:56;;;;;;;42.67;13.93;;;-2.20;99.90;;;;;;5009486;28;20575;-67
2022/03/04 00:25:22;;;;;;;41.47;15.07;;;-2.20;99.90;;;;;;5009474;28;20034;-69
2022/03/04 00:27:48;;;;;;;39.13;14.35;;;-2.30;99.90;;;;;;5008494;28;20029;-72
2022/03/04 00:30:13;;;;;;;41.13;14.55;;;-2.30;99.90;;;;;;5009413;28;20032;-70
2022/03/04 00:32:39;;;;;;;36.20;14.15;;;-2.30;99.90;;;;;;5013953;28;20022;-71
2022/03/04 00:35:05;;;;;;;43.85;14.75;;;-2.30;99.90;;;;;;5047901;28;20044;-71
2022/03/04 00:37:32;;;;;;;45.05;15.55;;;-2.30;99.90;;;;;;5025639;28;20037;-70
2022/03/04 00:39:57;;;;;;;41.33;16.13;;;-2.20;99.90;;;;;;5015081;28;20084;-68
2022/03/04 00:42:23;;;;;;;43.72;15.40;;;-2.20;99.90;;;;;;5016807;28;20034;-69
2022/03/04 00:44:49;;;;;;;47.92;17.58;;;-2.10;99.90;;;;;;5014993;28;20080;-70
2022/03/04 00:47:14;;;;;;;42.92;15.55;;;-2.10;99.90;;;;;;5024133;28;20450;-69
2022/03/04 00:49:40;;;;;;;43.50;15.00;;;-2.10;99.90;;;;;;5035245;28;20132;-70
2022/03/04 00:52:06;;;;;;;37.88;13.95;;;-2.10;99.90;;;;;;5034782;28;20060;-70
2022/03/04 00:54:32;;;;;;;39.90;14.40;;;-2.10;99.90;;;;;;5034035;28;20045;-71
2022/03/04 00:56:57;;;;;;;33.55;13.77;;;-2.10;99.90;;;;;;5034102;28;20485;-71
2022/03/04 00:59:23;;;;;;;44.20;14.10;;;-2.10;99.90;;;;;;5035456;28;20073;-70
2022/03/04 01:01:49;;;;;;;42.20;14.75;;;-2.10;99.90;;;;;;5027963;28;20435;-69
2022/03/04 01:04:14;;;;;;;39.13;14.70;;;-2.10;99.90;;;;;;5054118;28;20039;-68
2022/03/04 01:06:40;;;;;;;42.03;14.70;;;-2.20;99.90;;;;;;5035411;28;20109;-71
2022/03/04 01:09:06;;;;;;;44.85;15.18;;;-2.20;99.90;;;;;;5025464;28;20030;-69
2022/03/04 01:11:32;;;;;;;45.25;15.05;;;-2.20;99.90;;;;;;5014274;28;20080;-69
2022/03/04 01:13:58;;;;;;;46.75;15.80;;;-2.30;99.90;;;;;;5015682;28;20049;-69
2022/03/04 01:16:24;;;;;;;46.58;16.63;;;-2.40;99.90;;;;;;5044757;28;20040;-71
2022/03/04 01:18:50;;;;;;;45.58;15.30;;;-2.40;99.90;;;;;;5046611;28;20433;-71
2022/03/04 01:21:16;;;;;;;37.78;14.90;;;-2.50;99.90;;;;;;5035279;28;20091;-70
2022/03/04 01:23:41;;;;;;;43.97;15.15;;;-2.50;99.90;;;;;;5034650;28;20569;-70
2022/03/04 01:26:07;;;;;;;41.15;13.90;;;-2.50;99.90;;;;;;5034239;28;20033;-70
2022/03/04 01:28:33;;;;;;;40.78;13.70;;;-2.50;99.90;;;;;;5031500;28;20024;-70
2022/03/04 01:30:59;;;;;;;39.15;14.63;;;-2.40;99.90;;;;;;5046438;28;20041;-69
2022/03/04 01:33:24;;;;;;;45.22;14.23;;;-2.30;99.90;;;;;;5041179;28;20463;-69
2022/03/04 01:35:50;;;;;;;42.95;14.27;;;-2.30;99.90;;;;;;5034056;28;20030;-70
2022/03/04 01:38:16;;;;;;;41.63;14.15;;;-2.30;99.90;;;;;;5024635;28;20041;-70
2022/03/04 01:40:42;;;;;;;38.90;13.55;;;-2.20;99.90;;;;;;5015706;28;20030;-70
2022/03/04 01:43:07;;;;;;;41.55;14.48;;;-2.20;99.90;;;;;;5015978;28;20645;-70
2022/03/04 01:45:33;;;;;;;41.65;14.27;;;-2.20;99.90;;;;;;5052116;28;20530;-70
2022/03/04 01:47:59;;;;;;;38.00;13.70;;;-2.20;99.90;;;;;;5013477;28;20120;-71
2022/03/04 01:50:25;;;;;;;39.20;13.48;;;-2.20;99.90;;;;;;5011085;28;20037;-70
2022/03/04 01:52:51;;;;;;;41.63;15.02;;;-2.30;99.90;;;;;;5030099;28;20075;-71
2022/03/04 01:55:17;;;;;;;41.03;14.27;;;-2.30;99.90;;;;;;5032204;28;20042;-68
2022/03/04 01:57:43;;;;;;;41.30;14.15;;;-2.40;99.90;;;;;;5013500;28;20029;-71
2022/03/04 02:00:11;;;;;;;43.33;14.85;;;-2.40;99.90;;;;;;5046810;28;20096;-72
2022/03/04 02:02:37;;;;;;;41.10;14.18;;;-2.40;99.90;;;;;;5030308;28;20040;-69
2022/03/04 02:05:03;;;;;;;48.28;14.52;;;-2.40;99.90;;;;;;5030385;28;20041;-69
2022/03/04 02:07:29;;;;;;;48.03;15.13;;;-2.40;99.90;;;;;;5012903;28;20096;-71
2022/03/04 02:09:55;;;;;;;46.65;16.38;;;-2.60;99.90;;;;;;5011087;28;20034;-71
2022/03/04 02:12:20;;;;;;;45.00;14.35;;;-2.80;99.90;;;;;;5026649;28;20045;-71
2022/03/04 02:14:46;;;;;;;40.63;14.60;;;-2.70;99.90;;;;;;5045995;28;20387;-71
2022/03/04 02:17:12;;;;;;;46.85;14.55;;;-2.70;99.90;;;;;;5030039;28;20465;-71
2022/03/04 02:19:38;;;;;;;45.40;14.15;;;-2.80;99.90;;;;;;5021441;28;20486;-71
2022/03/04 02:22:04;;;;;;;44.92;15.18;;;-2.90;99.90;;;;;;5011580;28;20054;-69
2022/03/04 02:24:32;;;;;;;47.40;15.63;;;-2.90;99.90;;;;;;5031379;28;20034;-70
2022/03/04 02:27:00;;;;;;;45.08;14.02;;;-2.90;99.90;;;;;;5037772;28;20389;-70
2022/03/04 02:29:27;;;;;;;43.65;14.13;;;-2.90;99.90;;;;;;5011447;28;20092;-70
2022/03/04 02:31:54;;;;;;;46.55;14.52;;;-3.00;99.90;;;;;;5042143;28;20030;-70
2022/03/04 02:34:20;;;;;;;47.13;15.18;;;-2.90;99.90;;;;;;5042917;28;20425;-70
2022/03/04 02:36:46;;;;;;;53.92;15.98;;;-3.00;99.90;;;;;;5020247;28;20108;-70
2022/03/04 02:39:13;;;;;;;49.15;15.80;;;-3.10;99.90;;;;;;5030284;28;20029;-69
2022/03/04 02:41:38;;;;;;;48.40;15.85;;;-3.30;99.90;;;;;;5040537;28;20030;-71
2022/03/04 02:44:07;;;;;;;44.03;14.95;;;-3.30;99.90;;;;;;5030208;28;20029;-70
2022/03/04 02:46:33;;;;;;;50.35;16.10;;;-3.30;99.90;;;;;;5027981;28;20026;-71
2022/03/04 02:48:59;;;;;;;48.85;15.32;;;-3.30;99.90;;;;;;5010344;28;20462;-71
2022/03/04 02:51:24;;;;;;;49.05;14.60;;;-3.30;99.90;;;;;;5012130;28;20076;-71
2022/03/04 02:53:51;;;;;;;52.80;16.63;;;-3.30;99.90;;;;;;5010770;28;20439;-65
2022/03/04 02:56:17;;;;;;;46.78;15.35;;;-3.30;99.90;;;;;;5029671;28;20546;-71
2022/03/04 02:58:43;;;;;;;54.13;16.70;;;-3.30;99.90;;;;;;5010694;28;20050;-71
2022/03/04 03:01:08;;;;;;;55.40;15.50;;;-3.30;99.90;;;;;;5008339;28;20489;-71
2022/03/04 03:03:34;;;;;;;45.15;15.15;;;-3.20;99.90;;;;;;5010789;28;20080;-70
2022/03/04 03:06:00;;;;;;;44.58;15.27;;;-3.30;99.90;;;;;;5009894;28;20025;-69
2022/03/04 03:08:28;;;;;;;46.47;14.90;;;-3.40;99.90;;;;;;5022140;28;20037;-71
2022/03/04 03:10:54;;;;;;;44.38;15.48;;;-3.40;99.90;;;;;;5035426;28;20364;-65
2022/03/04 03:13:19;;;;;;;51.53;15.95;;;-3.40;99.90;;;;;;5017278;28;20096;-69
2022/03/04 03:15:45;;;;;;;49.22;15.57;;;-3.40;99.90;;;;;;5010343;28;20026;-71
2022/03/04 03:18:11;;;;;;;48.50;15.55;;;-3.50;99.90;;;;;;5009700;28;20030;-71
2022/03/04 03:20:36;;;;;;;44.45;14.30;;;-3.60;99.90;;;;;;5008859;28;20067;-70
2022/03/04 03:23:02;;;;;;;40.10;14.30;;;-3.70;99.90;;;;;;5023597;28;20057;-70
2022/03/04 03:25:28;;;;;;;42.72;14.52;;;-3.60;99.90;;;;;;5037746;28;20034;-71
2022/03/04 03:27:53;;;;;;;45.97;15.55;;;-3.60;99.90;;;;;;5010235;28;20030;-65
2022/03/04 03:30:19;;;;;;;45.53;15.63;;;-3.60;99.90;;;;;;5024058;28;20061;-69
2022/03/04 03:32:45;;;;;;;43.58;14.88;;;-3.60;99.90;;;;;;5030396;28;20049;-70
2022/03/04 03:35:10;;;;;;;43.33;15.15;;;-3.70;99.90;;;;;;5017762;28;20533;-71
2022/03/04 03:37:37;;;;;;;45.65;15.30;;;-3.60;99.90;;;;;;5036301;28;20082;-71
2022/03/04 03:40:09;;;;;;;45.17;14.65;;;-3.70;99.90;;;;;;5034417;28;20390;-70
2022/03/04 03:42:35;;;;;;;42.25;14.52;;;-3.70;99.90;;;;;;5029835;28;20034;-70
2022/03/04 03:45:03;;;;;;;46.25;14.52;;;-3.60;99.90;;;;;;5015321;28;20037;-70
2022/03/04 03:47:29;;;;;;;46.35;14.52;;;-3.50;99.90;;;;;;5008596;28;20105;-71
2022/03/04 03:49:54;;;;;;;45.00;14.88;;;-3.50;99.90;;;;;;5021462;28;20375;-66
2022/03/04 03:52:20;;;;;;;45.45;14.30;;;-3.50;99.90;;;;;;5034999;28;20021;-71
2022/03/04 03:54:46;;;;;;;44.63;14.70;;;-3.50;99.90;;;;;;5027170;28;20049;-70
2022/03/04 03:57:11;;;;;;;47.20;14.80;;;-3.50;99.90;;;;;;5024034;28;20147;-71
2022/03/04 03:59:37;;;;;;;46.83;14.38;;;-3.50;99.90;;;;;;5008062;28;20034;-69
2022/03/04 04:02:04;;;;;;;40.42;13.88;;;-3.50;99.90;;;;;;5018307;28;20033;-71
2022/03/04 04:04:35;;;;;;;42.30;14.60;;;-3.40;99.90;;;;;;5019876;28;20044;-72
2022/03/04 04:07:06;;;;;;;40.58;14.57;;;-3.30;99.90;;;;;;5022845;28;20044;-70
2022/03/04 04:09:32;;;;;;;43.40;15.18;;;-3.50;99.90;;;;;;5027209;28;20030;-72
2022/03/04 04:11:58;;;;;;;41.67;14.95;;;-3.60;99.90;;;;;;5026370;28;20151;-66
2022/03/04 04:14:24;;;;;;;40.40;14.38;;;-3.60;99.90;;;;;;5028980;28;20080;-70
2022/03/04 04:16:50;;;;;;;42.60;14.40;;;-3.70;99.90;;;;;;5016852;28;20057;-69
2022/03/04 04:19:15;;;;;;;42.33;13.60;;;-3.80;99.90;;;;;;5018122;28;20033;-69
2022/03/04 04:21:41;;;;;;;46.42;14.70;;;-3.90;99.90;;;;;;5010753;28;20044;-70
2022/03/04 04:24:07;;;;;;;46.75;14.40;;;-3.90;99.90;;;;;;5026607;28;20072;-70
2022/03/04 04:26:33;;;;;;;50.33;15.10;;;-3.90;99.90;;;;;;5012592;28;20037;-71
2022/03/04 04:28:58;;;;;;;47.22;14.55;;;-3.80;99.90;;;;;;5009834;28;20034;-65
2022/03/04 04:31:24;;;;;;;48.70;16.05;;;-3.80;99.90;;;;;;5009563;28;20033;-70
2022/03/04 04:33:50;;;;;;;43.38;14.23;;;-3.90;99.90;;;;;;5014183;28;20047;-70
2022/03/04 04:36:16;;;;;;;54.08;18.05;;;-3.90;99.90;;;;;;5017587;28;20033;-69
2022/03/04 04:38:42;;;;;;;45.25;15.57;;;-3.90;99.90;;;;;;5011804;28;20037;-69
2022/03/04 04:41:08;;;;;;;50.25;16.45;;;-3.90;99.90;;;;;;5028590;28;20028;-71
2022/03/04 04:43:35;;;;;;;42.85;15.82;;;-3.90;99.90;;;;;;5016960;28;20044;-70
2022/03/04 04:46:01;;;;;;;46.20;15.07;;;-3.90;99.90;;;;;;5008718;28;20033;-66
2022/03/04 04:48:26;;;;;;;46.42;15.13;;;-4.00;99.90;;;;;;5011523;28;20041;-70
2022/03/04 04:50:52;;;;;;;43.45;14.68;;;-4.00;99.90;;;;;;5028697;28;20037;-70
2022/03/04 04:53:18;;;;;;;40.45;14.18;;;-4.10;99.90;;;;;;5022167;28;20052;-70
2022/03/04 04:55:43;;;;;;;48.13;16.02;;;-4.10;99.90;;;;;;5010810;28;20034;-71
2022/03/04 04:58:09;;;;;;;40.78;14.35;;;-4.10;99.90;;;;;;5019653;28;20398;-70
2022/03/04 05:00:35;;;;;;;45.58;14.48;;;-4.10;99.90;;;;;;5014220;28;20028;-65
2022/03/04 05:03:03;;;;;;;45.47;14.85;;;-4.10;99.90;;;;;;5012066;28;20772;-72
2022/03/04 05:05:29;;;;;;;47.38;15.32;;;-4.10;99.90;;;;;;5010011;28;20030;-71
2022/03/04 05:07:55;;;;;;;56.22;15.63;;;-4.20;99.90;;;;;;5016828;28;20033;-67
2022/03/04 05:10:21;;;;;;;49.53;15.68;;;-4.20;99.90;;;;;;5008148;28;20478;-70
2022/03/04 05:12:46;;;;;;;44.88;15.98;;;-4.20;99.90;;;;;;5009579;28;20482;-71
2022/03/04 05:15:12;;;;;;;47.75;14.65;;;-4.20;99.90;;;;;;5007898;28;20037;-71
2022/03/04 05:17:38;;;;;;;51.25;16.02;;;-4.30;99.90;;;;;;5021255;28;20116;-71
2022/03/04 05:20:05;;;;;;;46.65;15.15;;;-4.30;99.90;;;;;;5027296;28;20022;-69
2022/03/04 05:22:31;;;;;;;47.17;14.88;;;-4.30;99.90;;;;;;5026543;28;20049;-70
2022/03/04 05:24:56;;;;;;;43.45;14.77;;;-4.30;99.90;;;;;;5018340;28;20045;-70
2022/03/04 05:27:22;;;;;;;44.85;14.95;;;-4.30;99.90;;;;;;5014090;28;20188;-70
2022/03/04 05:29:48;;;;;;;39.95;14.25;;;-4.30;99.90;;;;;;5014209;28;20455;-71
2022/03/04 05:32:13;;;;;;;49.85;15.95;;;-4.20;99.90;;;;;;5042780;28;20383;-70
2022/03/04 05:34:41;;;;;;;45.10;15.43;;;-4.20;99.90;;;;;;5047120;28;20045;-71
2022/03/04 05:37:06;;;;;;;45.53;15.07;;;-4.30;99.90;;;;;;5025878;28;20033;-70
2022/03/04 05:39:32;;;;;;;48.58;15.80;;;-4.40;99.90;;;;;;5012202;28;20494;-69
2022/03/04 05:41:58;;;;;;;49.08;16.00;;;-4.50;99.90;;;;;;5011801;28;20053;-71
2022/03/04 05:44:23;;;;;;;45.47;15.45;;;-4.60;99.90;;;;;;5028395;28;20166;-69
2022/03/04 05:46:49;;;;;;;49.58;15.60;;;-4.50;99.90;;;;;;5029730;28;20034;-68
2022/03/04 05:49:15;;;;;;;51.92;16.30;;;-4.40;99.90;;;;;;5011149;28;20033;-68
2022/03/04 05:51:41;;;;;;;56.20;15.95;;;-4.40;99.90;;;;;;5011722;28;20028;-68
2022/03/04 05:54:06;;;;;;;46.28;15.20;;;-4.30;99.90;;;;;;5014923;28;20145;-71
2022/03/04 05:56:32;;;;;;;52.50;16.05;;;-4.20;99.90;;;;;;5012122;28;20081;-68
2022/03/04 05:58:57;;;;;;;50.17;15.95;;;-4.30;99.90;;;;;;5011729;28;20387;-69
2022/03/04 06:01:23;;;;;;;48.05;15.68;;;-4.30;99.90;;;;;;5038134;28;20360;-65
2022/03/04 06:03:49;;;;;;;42.17;14.73;;;-4.30;99.90;;;;;;5016882;28;20033;-70
2022/03/04 06:06:14;;;;;;;48.83;16.52;;;-4.20;99.90;;;;;;5010787;28;20029;-69
2022/03/04 06:08:41;;;;;;;49.20;15.95;;;-4.20;99.90;;;;;;5030414;28;20378;-70
2022/03/04 06:11:10;;;;;;;47.13;16.10;;;-4.10;99.90;;;;;;5019503;28;20108;-68
2022/03/04 06:13:36;;;;;;;48.05;15.80;;;-4.10;99.90;;;;;;5021773;28;20061;-71
2022/03/04 06:16:03;;;;;;;53.35;16.95;;;-4.10;99.90;;;;;;5018363;28;20037;-64
2022/03/04 06:18:29;;;;;;;44.75;14.68;;;-4.30;99.90;;;;;;5009483;28;20478;-71
2022/03/04 06:20:54;;;;;;;44.30;15.73;;;-4.20;99.90;;;;;;5044154;28;20088;-69
2022/03/04 06:23:21;;;;;;;55.42;16.70;;;-4.30;99.90;;;;;;5014196;28;20061;-66
2022/03/04 06:25:47;;;;;;;47.50;16.25;;;-4.30;99.90;;;;;;5026072;28;20108;-71
2022/03/04 06:28:13;;;;;;;43.70;15.27;;;-4.50;99.90;;;;;;5025014;28;20096;-70
2022/03/04 06:30:39;;;;;;;56.83;17.25;;;-4.50;99.90;;;;;;5029317;28;20025;-69
2022/03/04 06:36:15;;;;;;;53.88;16.73;;;-4.30;99.90;;;;;;4978255;28;20066;-69
2022/03/04 06:38:45;;;;;;;50.22;16.38;;;-4.30;99.90;;;;;;4986027;28;20053;-68
2022/03/04 06:41:12;;;;;;;49.25;16.80;;;-4.30;99.90;;;;;;4980453;28;20702;-68
2022/03/04 06:43:39;;;;;;;49.78;16.92;;;-4.30;99.90;;;;;;4973246;28;20432;-69
2022/03/04 06:46:06;;;;;;;50.85;17.95;;;-4.20;99.90;;;;;;4977153;28;20035;-64
2022/03/04 06:48:32;;;;;;;55.53;17.67;;;-4.10;99.90;;;;;;4979765;28;20061;-68
2022/03/04 06:50:58;;;;;;;54.55;17.42;;;-3.90;99.90;;;;;;4974581;28;20057;-70
2022/03/04 06:53:24;;;;;;;49.22;17.52;;;-3.70;99.90;;;;;;4974142;28;20145;-69
2022/03/04 06:55:51;;;;;;;54.22;18.02;;;-3.50;99.90;;;;;;4982800;28;20495;-68
2022/03/04 06:58:17;;;;;;;59.55;18.52;;;-3.40;99.90;;;;;;4982141;28;20050;-67
2022/03/04 07:00:43;;;;;;;52.55;18.17;;;-3.20;99.90;;;;;;4973791;28;20049;-69
2022/03/04 07:03:11;;;;;;;51.60;17.55;;;-3.10;99.90;;;;;;4985471;28;20034;-63
2022/03/04 07:05:38;;;;;;;56.33;19.02;;;-2.90;99.90;;;;;;4967102;28;20073;-70
2022/03/04 07:08:07;;;;;;;54.65;18.75;;;-2.80;99.90;;;;;;5014140;28;20502;-71
2022/03/04 07:10:34;;;;;;;51.13;16.15;;;-2.70;99.90;;;;;;5026929;28;20034;-71
2022/03/04 07:13:01;;;;;;;50.55;16.40;;;-2.60;99.90;;;;;;5031062;28;20033;-71
2022/03/04 07:15:27;;;;;;;56.28;17.75;;;-2.70;99.90;;;;;;5033068;28;20029;-69
2022/03/04 07:17:52;;;;;;;51.83;17.95;;;-2.70;99.90;;;;;;5029610;28;20108;-69
2022/03/04 07:20:18;;;;;;;51.42;17.92;;;-2.70;99.90;;;;;;5023425;28;20491;-70
2022/03/04 07:22:44;;;;;;;58.08;19.33;;;-2.70;99.90;;;;;;5027121;28;20057;-70
2022/03/04 07:25:12;;;;;;;62.85;18.63;;;-2.60;99.90;;;;;;5021238;28;20402;-65
2022/03/04 07:27:39;;;;;;;57.90;18.70;;;-2.50;99.90;;;;;;5023839;28;20029;-72
2022/03/04 07:30:08;;;;;;;60.17;20.27;;;-2.30;99.90;;;;;;5022823;28;20118;-71
2022/03/04 07:32:33;;;;;;;55.20;19.00;;;-2.20;99.90;;;;;;5014014;28;20030;-72
2022/03/04 07:34:59;;;;;;;61.75;19.50;;;-2.00;99.90;;;;;;5025421;28;20394;-70
2022/03/04 07:37:25;;;;;;;60.10;20.40;;;-1.90;99.90;;;;;;5026406;28;20095;-70
2022/03/04 07:39:51;;;;;;;56.80;20.63;;;-1.70;99.90;;;;;;5014509;28;20486;-71
2022/03/04 07:42:17;;;;;;;57.65;19.23;;;-1.50;99.90;;;;;;5019245;28;20051;-69
2022/03/04 07:44:43;;;;;;;60.78;21.73;;;-1.30;99.90;;;;;;5023051;28;20025;-72
2022/03/04 07:47:09;;;;;;;57.08;20.40;;;-1.10;99.90;;;;;;5009096;28;20174;-65
2022/03/04 07:49:35;;;;;;;61.92;21.30;;;-0.90;99.90;;;;;;5021576;28;20037;-69
2022/03/04 07:52:00;;;;;;;62.83;21.35;;;-0.80;99.90;;;;;;5018411;28;20033;-72
2022/03/04 07:54:26;;;;;;;61.83;20.25;;;-0.70;99.90;;;;;;5030655;28;20041;-71
2022/03/04 07:56:52;;;;;;;62.08;21.52;;;-0.50;99.90;;;;;;5040033;28;20041;-71
2022/03/04 07:59:19;;;;;;;61.65;22.15;;;-0.40;99.90;;;;;;5023494;28;20382;-72
2022/03/04 08:01:44;;;;;;;60.38;20.88;;;-0.30;99.90;;;;;;5013656;28;20065;-70
2022/03/04 08:04:11;;;;;;;56.42;19.77;;;-0.10;99.90;;;;;;5030846;28;20029;-66
2022/03/04 08:06:38;;;;;;;63.63;21.25;;;0.00;99.90;;;;;;5032991;28;20032;-70
2022/03/04 08:09:04;;;;;;;60.28;21.55;;;0.10;99.90;;;;;;5039741;28;20028;-72
2022/03/04 08:11:30;;;;;;;62.55;21.27;;;0.20;99.90;;;;;;5024278;28;20061;-70
2022/03/04 08:13:55;;;;;;;58.97;21.48;;;0.30;99.90;;;;;;5028275;28;20497;-70
2022/03/04 08:16:21;;;;;;;65.18;21.60;;;0.50;99.90;;;;;;5028315;28;20116;-70
2022/03/04 08:18:47;;;;;;;56.20;19.63;;;0.80;99.90;;;;;;5024488;28;20112;-70
2022/03/04 08:21:13;;;;;;;61.13;20.52;;;0.80;99.90;;;;;;5044766;28;20033;-66
2022/03/04 08:23:38;;;;;;;58.63;20.98;;;0.70;99.90;;;;;;5043822;28;20060;-72
2022/03/04 08:26:05;;;;;;;57.63;20.58;;;0.80;99.90;;;;;;5048877;28;20033;-71
2022/03/04 08:28:33;;;;;;;56.47;21.52;;;1.00;99.90;;;;;;5023343;28;20634;-72
2022/03/04 08:30:59;;;;;;;59.47;21.50;;;1.20;99.90;;;;;;5019356;28;20527;-74
2022/03/04 08:33:27;;;;;;;67.28;22.45;;;1.40;99.90;;;;;;5026746;28;20041;-72
2022/03/04 08:35:53;;;;;;;60.63;21.58;;;1.50;99.90;;;;;;5029027;28;20104;-72
2022/03/04 08:38:19;;;;;;;59.95;20.77;;;1.70;99.90;;;;;;5042031;28;20382;-74
2022/03/04 08:40:44;;;;;;;61.65;21.13;;;1.80;99.90;;;;;;5028677;28;20032;-73
2022/03/04 08:43:11;;;;;;;58.65;20.55;;;2.00;99.90;;;;;;5036060;28;20060;-71
2022/03/04 08:45:36;;;;;;;51.47;20.17;;;2.00;99.90;;;;;;5032092;28;20072;-74
2022/03/04 08:48:06;;;;;;;62.83;21.77;;;2.00;99.90;;;;;;5024153;28;20052;-71
2022/03/04 08:50:33;;;;;;;59.55;20.88;;;1.90;99.90;;;;;;5024985;28;20500;-72
2022/03/04 08:53:01;;;;;;;56.53;20.23;;;2.10;99.90;;;;;;5025687;28;20104;-72
2022/03/04 08:55:30;;;;;;;54.50;20.48;;;2.30;99.90;;;;;;5023238;28;20121;-76
2022/03/04 08:57:57;;;;;;;62.25;21.92;;;2.40;99.90;;;;;;5022523;28;20390;-72
2022/03/04 09:00:23;;;;;;;57.05;20.70;;;2.40;99.90;;;;;;5031474;28;20053;-71
2022/03/04 09:02:49;;;;;;;54.78;21.02;;;2.60;99.90;;;;;;5039490;28;20034;-72
2022/03/04 09:05:15;;;;;;;56.30;21.05;;;2.70;99.90;;;;;;5029199;28;20041;-65
2022/03/04 09:07:41;;;;;;;56.50;21.20;;;2.70;99.90;;;;;;5029322;28;20029;-71
2022/03/04 09:10:07;;;;;;;57.47;20.63;;;2.80;99.90;;;;;;5025274;28;20096;-70
2022/03/04 09:12:33;;;;;;;60.92;21.35;;;2.80;99.90;;;;;;5022678;28;20215;-70
2022/03/04 09:14:59;;;;;;;55.10;20.15;;;3.00;99.90;;;;;;5023513;28;20478;-72
2022/03/04 09:17:25;;;;;;;58.60;21.33;;;3.20;99.90;;;;;;5018646;28;20061;-71
2022/03/04 09:19:51;;;;;;;50.45;19.17;;;3.30;99.90;;;;;;5031282;28;20033;-72
2022/03/04 09:22:16;;;;;;;56.75;21.15;;;3.30;99.90;;;;;;5032871;28;20057;-65
2022/03/04 09:24:42;;;;;;;57.30;22.25;;;3.50;99.90;;;;;;5027667;28;20044;-74
2022/03/04 09:27:08;;;;;;;59.28;21.20;;;3.70;99.90;;;;;;5046102;28;20035;-73
2022/03/04 09:29:34;;;;;;;58.72;20.58;;;3.80;99.90;;;;;;5033330;28;20030;-72
2022/03/04 09:32:00;;;;;;;53.47;20.30;;;4.00;99.90;;;;;;5030452;28;20425;-74
2022/03/04 09:34:25;;;;;;;55.30;19.70;;;4.00;99.90;;;;;;5029659;28;20033;-74
2022/03/04 09:36:51;;;;;;;53.33;18.77;;;4.10;99.90;;;;;;5030367;28;20033;-70
2022/03/04 09:39:17;;;;;;;53.83;20.35;;;4.10;99.90;;;;;;5028371;28;20132;-66
2022/03/04 09:41:45;;;;;;;58.55;21.33;;;4.10;99.90;;;;;;5020864;28;20057;-75
2022/03/04 09:44:12;;;;;;;51.30;20.67;;;4.30;99.90;;;;;;5030921;28;20036;-72
2022/03/04 09:46:41;;;;;;;57.45;21.40;;;4.40;99.90;;;;;;5029039;28;20849;-75
2022/03/04 09:49:08;;;;;;;50.40;19.40;;;4.60;99.90;;;;;;5031777;28;20088;-72
2022/03/04 09:51:34;;;;;;;52.15;19.67;;;4.70;99.70;;;;;;5036156;28;20029;-75
2022/03/04 09:54:00;;;;;;;54.90;20.52;;;4.80;98.30;;;;;;5031595;28;20038;-74
2022/03/04 09:56:26;;;;;;;59.70;20.52;;;4.70;98.40;;;;;;5029292;28;20040;-75
2022/03/04 09:58:51;;;;;;;53.28;20.15;;;4.70;99.60;;;;;;5016635;28;20461;-73
2022/03/04 10:01:17;;;;;;;49.58;19.27;;;5.00;99.00;;;;;;5033683;28;20037;-66
2022/03/04 10:03:46;;;;;;;51.00;19.95;;;4.90;97.30;;;;;;5022759;28;20045;-72
2022/03/04 10:06:13;;;;;;;55.15;20.42;;;5.10;97.10;;;;;;5041687;28;20041;-72
2022/03/04 10:08:41;;;;;;;51.10;19.77;;;5.10;96.00;;;;;;5029684;28;20033;-71
2022/03/04 10:11:08;;;;;;;55.20;20.00;;;5.20;96.40;;;;;;5029748;28;20120;-72
2022/03/04 10:13:50;;;;;;;51.08;20.13;;;5.40;95.30;;;;;;5018829;28;20030;-74
2022/03/04 10:16:29;;;;;;;52.45;19.73;;;5.70;94.90;;;;;;5023098;28;20243;-66
2022/03/04 10:19:18;;;;;;;53.70;19.67;;;5.90;93.10;;;;;;5030860;28;20038;-72
2022/03/04 10:21:54;;;;;;;49.47;18.65;;;6.00;90.70;;;;;;5033866;28;20030;-70
2022/03/04 10:24:34;;;;;;;49.20;20.85;;;6.00;90.00;;;;;;5021124;28;20042;-68
2022/03/04 10:27:12;;;;;;;52.65;20.00;;;6.20;90.40;;;;;;5027879;28;20030;-72
2022/03/04 10:29:47;;;;;;;54.80;20.05;;;6.40;85.50;;;;;;5021087;28;20026;-72
2022/03/04 10:32:26;;;;;;;49.35;20.55;;;6.30;85.10;;;;;;5027799;28;20037;-70
2022/03/04 10:35:08;;;;;;;50.92;18.83;;;6.10;82.50;;;;;;5024648;28;20113;-72
2022/03/04 10:37:41;;;;;;;50.28;19.40;;;6.10;82.50;;;;;;5014467;28;20035;-69
2022/03/04 10:40:07;;;;;;;51.58;19.40;;;5.90;81.40;;;;;;5024444;28;20506;-70
2022/03/04 10:42:52;;;;;;;53.33;20.05;;;6.20;88.70;;;;;;5029992;28;20108;-69
2022/03/04 10:45:43;;;;;;;46.75;18.02;;;6.60;84.50;;;;;;5027365;28;20124;-66
2022/03/04 10:48:19;;;;;;;51.15;19.02;;;6.90;78.40;;;;;;5032831;28;20033;-72
2022/03/04 10:50:50;;;;;;;50.55;19.55;;;7.00;75.60;;;;;;5027253;28;20060;-70
2022/03/04 10:53:17;;;;;;;46.80;19.13;;;7.10;77.50;;;;;;5031783;28;20033;-71
2022/03/04 10:55:47;;;;;;;50.08;19.25;;;7.00;74.10;;;;;;5029382;28;20038;-70
2022/03/04 10:58:16;;;;;;;46.00;18.63;;;7.10;75.50;;;;;;5026916;28;20033;-69
2022/03/04 11:00:45;;;;;;;46.35;18.75;;;7.20;71.30;;;;;;5030038;28;20674;-70
2022/03/04 11:03:40;;;;;;;46.10;19.08;;;7.20;72.30;;;;;;5027389;28;20642;-69
2022/03/04 11:06:15;;;;;;;49.08;18.45;;;7.50;73.70;;;;;;5018647;28;20037;-70
2022/03/04 11:08:44;;;;;;;49.67;17.83;;;7.80;68.40;;;;;;5028635;28;20043;-71
2022/03/04 11:11:11;;;;;;;43.97;17.02;;;7.80;65.40;;;;;;5025383;28;20034;-66
2022/03/04 11:13:37;;;;;;;44.13;17.33;;;7.70;59.30;;;;;;5028857;28;20041;-67
2022/03/04 11:16:05;;;;;;;45.22;17.23;;;7.70;58.20;;;;;;5021255;28;20300;-73
2022/03/04 11:18:33;;;;;;;41.95;16.27;;;8.20;63.10;;;;;;5022818;28;20353;-70
2022/03/04 11:20:59;;;;;;;43.08;17.33;;;8.70;57.80;;;;;;5017785;28;20033;-67
2022/03/04 11:23:27;;;;;;;39.58;16.05;;;8.90;57.80;;;;;;5029209;28;20494;-69
2022/03/04 11:26:07;;;;;;;41.78;16.42;;;9.30;54.80;;;;;;5028074;28;20021;-69
2022/03/04 11:28:38;;;;;;;40.38;16.50;;;9.20;52.60;;;;;;5028621;28;20029;-70
2022/03/04 11:31:06;;;;;;;;;;;8.60;50.60;;;;;;5030603;28;20037;-70
2022/03/04 11:33:42;;;;;;;41.22;14.98;;;8.20;51.90;;;;;;5029069;28;19952;-70
2022/03/04 11:36:16;;;;;;;38.70;15.35;;;8.20;52.70;;;;;;5030028;28;20033;-72
2022/03/04 11:38:48;;;;;;;42.40;16.77;;;8.20;52.40;;;;;;5027781;28;20041;-70
2022/03/04 11:41:34;;;;;;;43.13;17.42;;;8.50;54.40;;;;;;5029643;28;20385;-71
2022/03/04 11:44:12;;;;;;;42.50;16.50;;;8.70;54.70;;;;;;5029890;28;20029;-69
2022/03/04 11:46:51;;;;;;;43.80;17.17;;;8.20;54.00;;;;;;5028707;28;20103;-71
2022/03/04 11:49:38;;;;;;;45.65;17.83;;;8.20;57.70;;;;;;5028912;28;20029;-69
2022/03/04 11:52:10;;;;;;;42.75;17.15;;;8.60;54.60;;;;;;5029561;28;20029;-70
2022/03/04 11:54:40;;;;;;;43.33;17.83;;;8.60;53.80;;;;;;5028229;28;20405;-72
2022/03/04 11:57:21;;;;;;;40.50;16.13;;;8.90;55.40;;;;;;5029767;28;20116;-70
2022/03/04 11:59:54;;;;;;;38.67;15.85;;;9.20;53.50;;;;;;5028953;28;20271;-70
2022/03/04 12:02:42;;;;;;;41.85;17.27;;;9.40;52.40;;;;;;5029358;28;20064;-70
2022/03/04 12:05:14;;;;;;;44.28;18.05;;;9.60;52.00;;;;;;5000940;28;20076;-71
2022/03/04 12:08:00;;;;;;;39.92;17.95;;;9.40;53.90;;;;;;5028704;28;20032;-70
2022/03/04 12:10:30;;;;;;;43.67;17.70;;;9.20;52.80;;;;;;5017801;28;20181;-65
2022/03/04 12:12:58;;;;;;;42.83;17.55;;;9.60;53.00;;;;;;5029478;28;20060;-71
2022/03/04 12:15:24;;;;;;;43.00;17.20;;;9.90;51.00;;;;;;5027484;28;21168;-66
2022/03/04 12:18:04;;;;;;;43.40;17.17;;;10.00;51.40;;;;;;5019771;28;20489;-71
2022/03/04 12:20:31;;;;;;;38.17;17.13;;;10.20;51.60;;;;;;5024900;28;20032;-70
2022/03/04 12:23:07;;;;;;;42.30;17.98;;;10.10;48.50;;;;;;5019211;28;20096;-70
2022/03/04 12:25:51;;;;;;;39.65;17.15;;;9.80;49.50;;;;;;5024570;28;20048;-69
2022/03/04 12:28:17;;;;;;;38.95;17.15;;;9.80;49.00;;;;;;5026296;28;20040;-70
2022/03/04 12:30:43;;;;;;;40.83;16.13;;;9.40;49.40;;;;;;5026168;28;20022;-71
2022/03/04 12:33:10;;;;;;;40.38;16.63;;;9.70;50.00;;;;;;5024362;28;20036;-70
2022/03/04 12:35:36;;;;;;;39.10;16.83;;;10.00;48.30;;;;;;5023636;28;20044;-69